Time;durP1;ratioP1;P1;durP2;ratioP2;P2;SDS_P1;SDS_P2;PMS_P1;PMS_P2;Temp;Humidity;BMP_temperature;BMP_pressure;BME280_temperature;BME280_humidity;BME280_pressure;Samples;Min_cycle;Max_cycle;Signal;HPM_P1;HPM_P2
2023/07/07 00:00:35;;;;;;;2.45;0.98;;;12.50;99.90;;;;;;5013935;28;20419;-75
2023/07/07 00:03:01;;;;;;;4.25;1.20;;;12.50;99.90;;;;;;5030715;28;20049;-75
2023/07/07 00:05:27;;;;;;;1.83;1.08;;;12.50;99.90;;;;;;5030543;28;20487;-75
2023/07/07 00:07:53;;;;;;;1.27;0.98;;;12.50;99.90;;;;;;5030567;28;20436;-75
2023/07/07 00:10:19;;;;;;;1.45;1.10;;;12.50;99.90;;;;;;5030454;28;20053;-75
2023/07/07 00:12:46;;;;;;;5.28;1.60;;;12.50;99.90;;;;;;5030143;28;20041;-75
2023/07/07 00:15:12;;;;;;;4.10;1.40;;;12.50;99.90;;;;;;5013743;28;20481;-75
2023/07/07 00:17:41;;;;;;;2.70;1.35;;;12.50;99.90;;;;;;5029849;28;20054;-76
2023/07/07 00:20:12;;;;;;;6.20;1.52;;;12.50;99.90;;;;;;5030087;28;20052;-75
2023/07/07 00:22:37;;;;;;;2.70;1.38;;;12.40;99.90;;;;;;5013367;28;20049;-75
2023/07/07 00:25:04;;;;;;;3.60;1.27;;;12.40;99.90;;;;;;5030191;28;20047;-75
2023/07/07 00:27:30;;;;;;;8.18;1.55;;;12.30;99.90;;;;;;5029835;28;20045;-75
2023/07/07 00:29:56;;;;;;;7.20;1.42;;;12.30;99.90;;;;;;5030039;28;20079;-75
2023/07/07 00:32:22;;;;;;;6.68;1.30;;;12.30;99.90;;;;;;5031459;28;20433;-76
2023/07/07 00:34:48;;;;;;;;;;;12.30;99.90;;;;;;5029942;28;20088;-76
2023/07/07 00:37:14;;;;;;;28.23;3.10;;;12.30;99.90;;;;;;5012518;28;19982;-76
2023/07/07 00:39:40;;;;;;;47.95;5.45;;;12.20;99.90;;;;;;5029827;28;20136;-75
2023/07/07 00:42:05;;;;;;;21.05;2.72;;;12.20;99.90;;;;;;5026749;28;20667;-75
2023/07/07 00:45:10;;;;;;;10.13;1.90;;;12.20;99.90;;;;;;5018838;28;20076;-75
2023/07/07 00:48:01;;;;;;;10.35;1.92;;;12.20;99.90;;;;;;5008826;28;20049;-76
2023/07/07 00:50:36;;;;;;;6.57;1.48;;;12.10;99.90;;;;;;5022928;28;20053;-76
2023/07/07 00:53:03;;;;;;;6.40;1.30;;;12.10;99.90;;;;;;5029489;28;20033;-76
2023/07/07 00:55:43;;;;;;;1.73;0.80;;;12.00;99.90;;;;;;5029441;28;20041;-76
2023/07/07 00:58:13;;;;;;;8.63;1.30;;;12.00;99.90;;;;;;5029680;28;20047;-76
2023/07/07 01:00:41;;;;;;;11.40;1.50;;;11.90;99.90;;;;;;5029169;28;20052;-75
2023/07/07 01:03:25;;;;;;;14.57;1.90;;;11.90;99.90;;;;;;5029370;28;20045;-75
2023/07/07 01:05:54;;;;;;;16.27;2.10;;;11.90;99.90;;;;;;5029357;28;20053;-75
2023/07/07 01:08:20;;;;;;;7.72;1.30;;;11.90;99.90;;;;;;5029158;28;20041;-75
2023/07/07 01:10:46;;;;;;;;;;;11.80;99.90;;;;;;5029683;28;20078;-76
2023/07/07 01:13:12;;;;;;;3.17;1.10;;;11.80;99.90;;;;;;5029413;28;19921;-76
2023/07/07 01:16:14;;;;;;;5.72;0.98;;;11.70;99.90;;;;;;5029294;28;20045;-76
2023/07/07 01:19:15;;;;;;;16.85;2.17;;;11.70;99.90;;;;;;4986613;28;20107;-75
2023/07/07 01:22:27;;;;;;;15.57;2.25;;;11.60;99.90;;;;;;4999378;28;20037;-75
2023/07/07 01:25:17;;;;;;;5.53;1.30;;;11.70;99.90;;;;;;4994132;28;20049;-75
2023/07/07 01:28:08;;;;;;;9.13;1.63;;;11.70;99.90;;;;;;5028838;28;20555;-75
2023/07/07 01:30:55;;;;;;;10.27;1.80;;;11.70;99.90;;;;;;5029227;28;20045;-75
2023/07/07 01:33:25;;;;;;;7.47;1.60;;;11.70;99.90;;;;;;5028809;28;20045;-76
2023/07/07 01:35:51;;;;;;;2.05;0.70;;;11.60;99.90;;;;;;5028584;28;20058;-76
2023/07/07 01:38:42;;;;;;;1.55;0.80;;;11.60;99.90;;;;;;5028189;28;20045;-76
2023/07/07 01:41:13;;;;;;;3.60;0.60;;;11.60;99.90;;;;;;5018117;28;20389;-76
2023/07/07 01:43:58;;;;;;;1.00;0.52;;;11.60;99.90;;;;;;5028923;28;20431;-76
2023/07/07 01:46:43;;;;;;;0.80;0.60;;;11.60;99.90;;;;;;5028669;28;20049;-76
2023/07/07 01:49:17;;;;;;;1.05;0.65;;;11.60;99.90;;;;;;5028244;28;20045;-76
2023/07/07 01:51:55;;;;;;;0.65;0.60;;;11.60;99.90;;;;;;5029082;28;20424;-76
2023/07/07 01:54:22;;;;;;;0.50;0.40;;;11.60;99.90;;;;;;5028631;28;20042;-76
2023/07/07 01:56:49;;;;;;;0.60;0.52;;;11.60;99.90;;;;;;5028679;28;20489;-76
2023/07/07 01:59:16;;;;;;;0.40;0.40;;;11.50;99.90;;;;;;5012132;28;20301;-76
2023/07/07 02:01:42;;;;;;;0.88;0.63;;;11.50;99.90;;;;;;5024926;28;20506;-76
2023/07/07 02:04:08;;;;;;;0.60;0.40;;;11.50;99.90;;;;;;5011728;28;20136;-76
2023/07/07 02:06:34;;;;;;;0.60;0.60;;;11.50;99.90;;;;;;5027789;28;20080;-76
2023/07/07 02:08:59;;;;;;;0.47;0.47;;;11.50;99.90;;;;;;5012078;28;20121;-76
2023/07/07 02:11:25;;;;;;;0.50;0.50;;;11.40;99.90;;;;;;5027849;28;20076;-76
2023/07/07 02:13:51;;;;;;;0.73;0.50;;;11.50;99.90;;;;;;5028325;28;20111;-75
2023/07/07 02:16:17;;;;;;;0.60;0.50;;;11.40;99.90;;;;;;5028253;28;20051;-75
2023/07/07 02:18:48;;;;;;;0.98;0.50;;;11.40;99.90;;;;;;5011972;28;20116;-76
2023/07/07 02:21:17;;;;;;;0.60;0.60;;;11.50;99.90;;;;;;5028098;28;20041;-76
2023/07/07 02:23:43;;;;;;;0.60;0.55;;;11.40;99.90;;;;;;5028897;28;20038;-75
2023/07/07 02:26:09;;;;;;;;;;;11.40;99.90;;;;;;5028696;28;20053;-76
2023/07/07 02:28:34;;;;;;;0.60;0.55;;;11.40;99.90;;;;;;5028368;28;19944;-76
2023/07/07 02:31:00;;;;;;;0.85;0.68;;;11.40;99.90;;;;;;5028434;28;20132;-76
2023/07/07 02:33:31;;;;;;;0.50;0.50;;;11.40;99.90;;;;;;5030699;28;20131;-76
2023/07/07 02:36:05;;;;;;;0.73;0.40;;;11.40;99.90;;;;;;5027911;28;20092;-76
2023/07/07 02:38:31;;;;;;;0.75;0.50;;;11.50;99.90;;;;;;5011805;28;20049;-76
2023/07/07 02:40:57;;;;;;;0.50;0.40;;;11.70;99.90;;;;;;5028095;28;20080;-76
2023/07/07 02:43:23;;;;;;;0.70;0.50;;;11.80;99.90;;;;;;5011864;28;20073;-76
2023/07/07 02:45:49;;;;;;;0.47;0.40;;;12.00;99.90;;;;;;5028288;28;20573;-76
2023/07/07 02:48:18;;;;;;;0.77;0.50;;;12.10;99.90;;;;;;5028366;28;20048;-76
2023/07/07 02:50:52;;;;;;;0.75;0.70;;;12.20;99.90;;;;;;5008521;28;20080;-76
2023/07/07 02:53:18;;;;;;;0.70;0.60;;;12.30;99.90;;;;;;5011687;28;20037;-76
2023/07/07 02:55:45;;;;;;;0.82;0.70;;;12.40;99.90;;;;;;5028059;28;20079;-75
2023/07/07 02:58:11;;;;;;;0.70;0.60;;;12.50;99.90;;;;;;5028486;28;20128;-75
2023/07/07 03:00:37;;;;;;;1.00;0.80;;;12.50;99.90;;;;;;5030582;28;20544;-76
2023/07/07 03:03:03;;;;;;;0.95;0.70;;;12.60;99.90;;;;;;5031833;28;20052;-76
2023/07/07 03:05:31;;;;;;;0.47;0.45;;;12.60;99.90;;;;;;5015132;28;20049;-76
2023/07/07 03:07:57;;;;;;;1.00;0.90;;;12.70;99.90;;;;;;5008962;28;20045;-75
2023/07/07 03:10:22;;;;;;;0.70;0.70;;;12.60;99.90;;;;;;5024483;28;20098;-76
2023/07/07 03:12:48;;;;;;;1.23;0.90;;;12.60;99.90;;;;;;5032052;28;20033;-76
2023/07/07 03:15:14;;;;;;;0.75;0.73;;;12.70;99.90;;;;;;5032631;28;20045;-75
2023/07/07 03:17:39;;;;;;;1.30;0.82;;;12.70;99.90;;;;;;5032043;28;20042;-75
2023/07/07 03:20:08;;;;;;;1.02;0.80;;;12.70;99.90;;;;;;5031807;28;20041;-75
2023/07/07 03:22:35;;;;;;;1.10;1.00;;;12.70;99.90;;;;;;5031140;28;20071;-75
2023/07/07 03:25:01;;;;;;;1.10;0.80;;;12.70;99.90;;;;;;5014887;28;20092;-75
2023/07/07 03:27:27;;;;;;;1.42;1.20;;;12.70;99.90;;;;;;5031557;28;20049;-75
2023/07/07 03:29:52;;;;;;;1.80;1.20;;;12.70;99.90;;;;;;5031424;28;20052;-76
2023/07/07 03:32:18;;;;;;;1.30;1.10;;;12.70;99.90;;;;;;5031358;28;20401;-76
2023/07/07 03:34:47;;;;;;;1.80;1.40;;;12.70;99.90;;;;;;5030901;28;20169;-76
2023/07/07 03:37:12;;;;;;;2.40;1.58;;;12.60;99.90;;;;;;4998739;28;20056;-76
2023/07/07 03:39:38;;;;;;;2.38;1.40;;;12.70;99.90;;;;;;5031221;28;20053;-76
2023/07/07 03:42:08;;;;;;;1.60;1.20;;;12.60;99.90;;;;;;5024700;28;20046;-76
2023/07/07 03:44:34;;;;;;;1.35;1.13;;;12.60;99.90;;;;;;5008721;28;20049;-76
2023/07/07 03:47:00;;;;;;;;;;;12.60;99.90;;;;;;5015248;28;20095;-76
2023/07/07 03:49:26;;;;;;;1.60;1.10;;;12.60;99.90;;;;;;5030758;28;20388;-76
2023/07/07 03:51:51;;;;;;;1.83;1.08;;;12.60;99.90;;;;;;5030596;28;20537;-76
2023/07/07 03:54:17;;;;;;;1.20;1.05;;;12.60;99.90;;;;;;5030938;28;20069;-76
2023/07/07 03:56:43;;;;;;;1.15;1.05;;;12.60;99.90;;;;;;5014296;28;20041;-76
2023/07/07 03:59:08;;;;;;;1.13;0.90;;;12.60;99.90;;;;;;5031056;28;20045;-76
2023/07/07 04:01:34;;;;;;;1.52;1.17;;;12.60;99.90;;;;;;5017388;28;20046;-76
2023/07/07 04:04:00;;;;;;;1.00;0.88;;;12.50;99.90;;;;;;5028639;28;20092;-75
2023/07/07 04:06:25;;;;;;;1.73;1.10;;;12.60;99.90;;;;;;5029434;28;20111;-76
2023/07/07 04:08:51;;;;;;;1.17;1.08;;;12.60;99.90;;;;;;5013603;28;20038;-76
2023/07/07 04:11:19;;;;;;;1.80;1.20;;;12.60;99.90;;;;;;5014284;28;20087;-76
2023/07/07 04:13:50;;;;;;;1.77;1.10;;;12.70;99.90;;;;;;5031136;28;20603;-76
2023/07/07 04:16:24;;;;;;;1.20;1.00;;;12.70;99.90;;;;;;5030731;28;20037;-76
2023/07/07 04:18:52;;;;;;;1.48;1.15;;;12.70;99.90;;;;;;5030266;28;20044;-76
2023/07/07 04:21:24;;;;;;;1.40;1.17;;;12.70;99.90;;;;;;5030352;28;20045;-75
2023/07/07 04:23:52;;;;;;;1.60;1.30;;;12.80;99.90;;;;;;5030552;28;20544;-75
2023/07/07 04:26:19;;;;;;;1.23;1.08;;;12.80;99.90;;;;;;5031012;28;20056;-75
2023/07/07 04:28:45;;;;;;;1.20;1.10;;;12.90;99.90;;;;;;5030842;28;20053;-76
2023/07/07 04:31:12;;;;;;;;;;;12.90;99.90;;;;;;5014155;28;20112;-76
2023/07/07 04:33:38;;;;;;;1.00;0.80;;;13.00;99.90;;;;;;5030128;28;19921;-76
2023/07/07 04:36:07;;;;;;;2.38;1.13;;;13.00;99.90;;;;;;5029510;28;20073;-76
2023/07/07 04:38:34;;;;;;;1.70;1.00;;;13.10;99.90;;;;;;5019557;28;20124;-76
2023/07/07 04:41:21;;;;;;;1.70;1.20;;;13.10;99.90;;;;;;5029857;28;20476;-76
2023/07/07 04:43:54;;;;;;;1.40;1.00;;;13.10;99.90;;;;;;5029832;28;20037;-76
2023/07/07 04:46:26;;;;;;;1.30;1.20;;;13.20;99.90;;;;;;5029765;28;20084;-76
2023/07/07 04:48:52;;;;;;;2.05;1.58;;;13.30;99.90;;;;;;5016864;28;20060;-76
2023/07/07 04:51:18;;;;;;;1.75;1.40;;;13.30;99.90;;;;;;5029694;28;20527;-76
2023/07/07 04:53:44;;;;;;;1.77;1.55;;;13.40;99.90;;;;;;5029588;28;20045;-76
2023/07/07 04:56:15;;;;;;;;;;;13.40;99.90;;;;;;5013676;28;20056;-76
2023/07/07 04:58:42;;;;;;;1.50;1.40;;;13.40;99.90;;;;;;5029436;28;19917;-76
2023/07/07 05:01:11;;;;;;;1.58;1.30;;;13.50;99.90;;;;;;5029622;28;20065;-76
2023/07/07 05:03:38;;;;;;;1.45;1.35;;;13.60;99.90;;;;;;5013008;28;20045;-76
2023/07/07 05:06:04;;;;;;;1.10;1.00;;;13.60;99.90;;;;;;5029518;28;20144;-76
2023/07/07 05:08:37;;;;;;;2.03;1.50;;;13.70;99.90;;;;;;5029317;28;20046;-76
2023/07/07 05:11:04;;;;;;;1.98;1.40;;;13.80;99.90;;;;;;5013397;28;20135;-76
2023/07/07 05:13:30;;;;;;;1.30;1.20;;;13.90;99.90;;;;;;5029166;28;20049;-76
2023/07/07 05:16:04;;;;;;;1.73;1.40;;;13.90;99.90;;;;;;5028948;28;20136;-76
2023/07/07 05:18:30;;;;;;;1.70;1.35;;;14.00;99.90;;;;;;5029201;28;20051;-76
2023/07/07 05:20:56;;;;;;;1.40;1.30;;;14.10;99.90;;;;;;5029205;28;20029;-76
2023/07/07 05:23:22;;;;;;;2.40;2.03;;;14.10;99.90;;;;;;5012300;28;20044;-76
2023/07/07 05:25:48;;;;;;;1.60;1.50;;;14.20;99.90;;;;;;5029099;28;20465;-76
2023/07/07 05:28:13;;;;;;;1.60;1.25;;;14.30;99.90;;;;;;5012813;28;20075;-76
2023/07/07 05:30:39;;;;;;;1.42;1.30;;;14.40;99.90;;;;;;5029163;28;20033;-76
2023/07/07 05:33:05;;;;;;;2.90;2.30;;;14.50;99.90;;;;;;4977030;28;20794;-76
2023/07/07 05:35:31;;;;;;;3.03;2.20;;;14.50;99.90;;;;;;5022836;28;20072;-76
2023/07/07 05:37:57;;;;;;;3.70;2.58;;;14.60;99.90;;;;;;5030697;28;20042;-76
2023/07/07 05:40:22;;;;;;;2.38;2.00;;;14.70;99.90;;;;;;5028910;28;20435;-75
2023/07/07 05:42:48;;;;;;;2.80;2.45;;;14.70;99.90;;;;;;5016440;28;20077;-76
2023/07/07 05:45:14;;;;;;;2.85;2.30;;;14.80;99.90;;;;;;5024365;28;20144;-75
2023/07/07 05:47:39;;;;;;;3.38;2.90;;;14.90;99.90;;;;;;5019723;28;20050;-76
2023/07/07 05:50:06;;;;;;;3.40;2.60;;;15.00;99.90;;;;;;5028856;28;20041;-76
2023/07/07 05:52:31;;;;;;;;;;;15.10;99.90;;;;;;5029350;28;20064;-76
2023/07/07 05:54:57;;;;;;;3.60;2.85;;;15.20;99.90;;;;;;5028729;28;19917;-76
2023/07/07 05:57:23;;;;;;;;;;;15.30;99.90;;;;;;5029116;28;20049;-76
2023/07/07 05:59:49;;;;;;;3.50;2.80;;;15.40;99.90;;;;;;5028720;28;19917;-76
2023/07/07 06:02:14;;;;;;;3.10;2.40;;;15.50;99.90;;;;;;5029080;28;20037;-76
2023/07/07 06:04:41;;;;;;;2.83;2.35;;;15.60;99.90;;;;;;5029880;28;20037;-76
2023/07/07 06:07:06;;;;;;;;;;;15.70;99.90;;;;;;5028857;28;20493;-76
2023/07/07 06:09:32;;;;;;;2.83;2.10;;;15.80;99.90;;;;;;5028827;28;19927;-76
2023/07/07 06:11:58;;;;;;;2.20;2.00;;;16.00;99.90;;;;;;5028531;28;20083;-76
2023/07/07 06:14:25;;;;;;;;;;;16.10;99.90;;;;;;5029449;28;20354;-76
2023/07/07 06:16:50;;;;;;;3.97;2.78;;;16.40;99.90;;;;;;5028740;28;20019;-76
2023/07/07 06:19:16;;;;;;;4.28;2.95;;;16.90;99.90;;;;;;5028548;28;20604;-76
2023/07/07 06:21:42;;;;;;;4.22;2.80;;;17.40;99.90;;;;;;5012600;28;20038;-76
2023/07/07 06:24:07;;;;;;;3.22;2.90;;;17.90;99.90;;;;;;5028492;28;20400;-76
2023/07/07 06:26:33;;;;;;;3.90;2.55;;;18.00;99.90;;;;;;5012063;28;20096;-76
2023/07/07 06:28:58;;;;;;;3.85;2.67;;;18.00;1.00;;;;;;5028475;28;20049;-76
2023/07/07 06:31:24;;;;;;;3.70;2.70;;;17.90;99.90;;;;;;5008833;28;20054;-76
2023/07/07 06:33:50;;;;;;;3.95;3.28;;;18.00;13.50;;;;;;5021670;28;20060;-76
2023/07/07 06:36:15;;;;;;;4.15;3.17;;;18.20;1.00;;;;;;5031553;28;20183;-76
2023/07/07 06:38:42;;;;;;;5.28;4.25;;;18.30;1.00;;;;;;5032139;28;20484;-76
2023/07/07 06:41:12;;;;;;;3.53;3.15;;;18.30;99.90;;;;;;5015722;28;20496;-76
2023/07/07 06:43:38;;;;;;;4.25;3.60;;;18.30;99.90;;;;;;5018231;28;20042;-76
2023/07/07 06:46:03;;;;;;;;;;;18.30;99.90;;;;;;5015770;28;20049;-76
2023/07/07 06:48:29;;;;;;;5.93;3.67;;;18.30;1.00;;;;;;5031907;28;19920;-76
2023/07/07 06:50:54;;;;;;;;;;;18.30;99.90;;;;;;5032273;28;20049;-76
2023/07/07 06:53:20;;;;;;;3.38;3.08;;;18.50;99.90;;;;;;5031715;28;19927;-76
2023/07/07 06:55:46;;;;;;;3.97;2.65;;;18.50;99.90;;;;;;5031723;28;20048;-76
2023/07/07 06:58:12;;;;;;;;;;;18.60;99.90;;;;;;5032248;28;20063;-76
2023/07/07 07:00:38;;;;;;;2.27;1.77;;;18.70;99.90;;;;;;5032132;28;20129;-76
2023/07/07 07:03:04;;;;;;;5.00;2.20;;;18.80;99.90;;;;;;5031833;28;20576;-76
2023/07/07 07:05:29;;;;;;;;;;;18.90;99.90;;;;;;5016088;28;20022;-76
2023/07/07 07:07:55;;;;;;;5.07;2.85;;;19.00;1.00;;;;;;5015245;28;19971;-76
2023/07/07 07:10:21;;;;;;;;;;;19.00;99.90;;;;;;5030578;28;20081;-76
2023/07/07 07:12:48;;;;;;;2.50;2.00;;;19.10;99.90;;;;;;5036080;28;19955;-76
2023/07/07 07:15:14;;;;;;;2.05;1.80;;;19.30;99.90;;;;;;5015452;28;20049;-76
2023/07/07 07:17:40;;;;;;;1.98;1.70;;;19.40;99.90;;;;;;5031264;28;20553;-76
2023/07/07 07:20:06;;;;;;;;;;;19.60;99.90;;;;;;5031724;28;20046;-76
2023/07/07 07:22:32;;;;;;;2.38;1.70;;;19.70;25.80;;;;;;5031229;28;19967;-76
2023/07/07 07:24:57;;;;;;;;;;;19.80;1.00;;;;;;5032073;28;20123;-76
2023/07/07 07:27:23;;;;;;;2.70;2.00;;;19.90;1.00;;;;;;5014840;28;20335;-76
2023/07/07 07:29:51;;;;;;;;;;;20.10;99.90;;;;;;5031707;28;20041;-76
2023/07/07 07:32:18;;;;;;;2.78;2.22;;;20.10;99.90;;;;;;5015355;28;19917;-76
2023/07/07 07:34:43;;;;;;;3.70;2.30;;;20.30;99.90;;;;;;5030973;28;20048;-76
2023/07/07 07:37:09;;;;;;;;;;;20.40;99.90;;;;;;5031364;28;20049;-76
2023/07/07 07:39:35;;;;;;;2.53;1.73;;;20.60;99.90;;;;;;5031064;28;19917;-76
2023/07/07 07:42:02;;;;;;;1.83;1.30;;;20.70;99.90;;;;;;5008406;28;20045;-76
2023/07/07 07:44:29;;;;;;;2.35;1.42;;;20.90;99.90;;;;;;5006907;28;20116;-76
2023/07/07 07:46:56;;;;;;;2.17;1.67;;;21.10;99.90;;;;;;5030413;28;20041;-76
2023/07/07 07:49:23;;;;;;;3.15;2.15;;;21.10;89.20;;;;;;5030820;28;20394;-76
2023/07/07 07:51:49;;;;;;;3.00;2.40;;;21.30;1.00;;;;;;5030832;28;20140;-76
2023/07/07 07:54:18;;;;;;;2.88;1.80;;;21.40;1.00;;;;;;5014610;28;20080;-77
2023/07/07 07:56:44;;;;;;;2.40;1.75;;;21.50;1.00;;;;;;5030789;28;20493;-77
2023/07/07 07:59:10;;;;;;;2.45;1.42;;;21.60;1.00;;;;;;5014189;28;20044;-76
2023/07/07 08:01:36;;;;;;;2.25;1.60;;;21.70;1.00;;;;;;5030807;28;20041;-76
2023/07/07 08:04:03;;;;;;;2.33;1.60;;;21.80;99.90;;;;;;5013906;28;20476;-76
2023/07/07 08:06:29;;;;;;;2.08;1.70;;;21.90;1.00;;;;;;5030486;28;20450;-76
2023/07/07 08:08:55;;;;;;;2.13;1.60;;;22.10;1.00;;;;;;5014281;28;20037;-76
2023/07/07 08:11:47;;;;;;;1.92;1.67;;;22.10;99.90;;;;;;5013966;28;20460;-76
2023/07/07 08:14:29;;;;;;;2.35;1.40;;;22.30;99.90;;;;;;5003257;28;20400;-76
2023/07/07 08:16:56;;;;;;;2.15;1.20;;;22.50;99.90;;;;;;5030378;28;20054;-76
2023/07/07 08:19:22;;;;;;;2.65;1.40;;;22.80;99.90;;;;;;5030029;28;20476;-76
2023/07/07 08:21:48;;;;;;;1.20;1.00;;;22.90;99.90;;;;;;5014021;28;20084;-76
2023/07/07 08:24:14;;;;;;;1.25;1.00;;;23.00;99.90;;;;;;5029806;28;20415;-76
2023/07/07 08:26:40;;;;;;;1.75;1.17;;;23.10;99.90;;;;;;5030255;28;20045;-76
2023/07/07 08:29:07;;;;;;;2.85;1.50;;;23.20;99.90;;;;;;4997959;28;20048;-76
2023/07/07 08:31:33;;;;;;;1.73;1.20;;;23.40;99.90;;;;;;5030114;28;20076;-76
2023/07/07 08:33:58;;;;;;;1.45;1.20;;;23.60;99.90;;;;;;5031559;28;20080;-76
2023/07/07 08:36:24;;;;;;;1.33;1.00;;;23.80;98.80;;;;;;5029294;28;20144;-76
2023/07/07 08:38:51;;;;;;;2.90;1.13;;;24.00;99.90;;;;;;5030206;28;20072;-76
2023/07/07 08:41:16;;;;;;;2.25;1.40;;;24.20;99.90;;;;;;5029615;28;20516;-76
2023/07/07 08:43:44;;;;;;;2.30;1.00;;;24.30;99.90;;;;;;5029700;28;20124;-76
2023/07/07 08:47:03;;;;;;;3.05;1.00;;;24.30;20.40;;;;;;5029748;28;20466;-76
2023/07/07 08:49:37;;;;;;;1.70;1.10;;;24.60;84.90;;;;;;4964778;28;20069;-76
2023/07/07 08:52:11;;;;;;;1.92;0.90;;;24.70;1.00;;;;;;5027932;28;20056;-76
2023/07/07 08:54:52;;;;;;;1.30;1.10;;;24.80;1.00;;;;;;5013088;28;20049;-76
2023/07/07 08:57:19;;;;;;;1.38;1.13;;;24.90;37.90;;;;;;5028854;28;20037;-76
2023/07/07 09:00:02;;;;;;;1.10;0.90;;;25.00;1.00;;;;;;5012942;28;20057;-76
2023/07/07 09:03:10;;;;;;;1.15;0.88;;;25.20;1.00;;;;;;5015973;28;20084;-76
2023/07/07 09:06:13;;;;;;;1.40;0.90;;;25.30;99.90;;;;;;5005966;28;20377;-76
2023/07/07 09:08:45;;;;;;;2.00;1.20;;;25.40;99.90;;;;;;5013515;28;20053;-76
2023/07/07 09:11:48;;;;;;;1.73;0.98;;;25.40;99.90;;;;;;5029929;28;20037;-76
2023/07/07 09:14:14;;;;;;;1.85;1.10;;;25.40;99.90;;;;;;5029670;28;20358;-76
2023/07/07 09:16:42;;;;;;;1.08;0.90;;;25.50;99.90;;;;;;5029019;28;20124;-76
2023/07/07 09:19:19;;;;;;;1.23;0.90;;;25.60;99.90;;;;;;5029090;28;20133;-76
2023/07/07 09:21:54;;;;;;;1.80;1.30;;;25.60;99.90;;;;;;5012708;28;20037;-76
2023/07/07 09:24:42;;;;;;;1.90;1.20;;;25.50;99.90;;;;;;5028855;28;20041;-76
2023/07/07 09:27:16;;;;;;;2.65;1.10;;;25.60;99.90;;;;;;5012599;28;20037;-76
2023/07/07 09:29:43;;;;;;;2.38;1.20;;;25.90;99.90;;;;;;5015736;28;20107;-76
2023/07/07 09:32:11;;;;;;;2.22;1.17;;;26.10;99.90;;;;;;4993182;28;20454;-76
2023/07/07 09:34:39;;;;;;;1.48;1.08;;;26.20;99.90;;;;;;5028314;28;20049;-76
2023/07/07 09:37:17;;;;;;;1.10;0.82;;;26.30;99.90;;;;;;5012374;28;20058;-76
2023/07/07 09:40:11;;;;;;;1.27;0.90;;;26.50;99.90;;;;;;5028803;28;20240;-76
2023/07/07 09:42:49;;;;;;;1.40;0.90;;;26.70;99.90;;;;;;5012353;28;20151;-76
2023/07/07 09:45:26;;;;;;;1.77;0.80;;;26.80;99.90;;;;;;5028691;28;20041;-76
2023/07/07 09:48:23;;;;;;;1.67;1.27;;;27.00;99.90;;;;;;5028677;28;20570;-76
2023/07/07 09:51:24;;;;;;;1.42;1.02;;;27.10;99.90;;;;;;5017376;28;20412;-76
2023/07/07 09:53:50;;;;;;;1.77;1.10;;;26.90;99.90;;;;;;5029124;28;20045;-76
2023/07/07 09:56:23;;;;;;;1.60;0.95;;;26.80;99.90;;;;;;5028653;28;20079;-76
2023/07/07 09:59:16;;;;;;;1.13;0.90;;;27.00;99.90;;;;;;5028768;28;20497;-76
2023/07/07 10:01:46;;;;;;;1.10;0.88;;;27.00;99.90;;;;;;5012181;28;20120;-76
2023/07/07 10:04:15;;;;;;;1.45;0.93;;;27.20;99.90;;;;;;5028663;28;20379;-76
2023/07/07 10:06:59;;;;;;;1.27;0.93;;;27.40;99.90;;;;;;5029149;28;20435;-75
2023/07/07 10:09:26;;;;;;;2.80;1.20;;;27.50;99.90;;;;;;5019173;28;20049;-74
2023/07/07 10:11:53;;;;;;;10.73;1.40;;;27.60;99.90;;;;;;5033229;28;20049;-74
2023/07/07 10:14:19;;;;;;;9.88;1.70;;;27.30;99.90;;;;;;5032918;28;20037;-74
2023/07/07 10:17:01;;;;;;;4.90;1.42;;;27.30;99.90;;;;;;5016215;28;20049;-74
2023/07/07 10:19:27;;;;;;;1.77;1.10;;;27.10;99.90;;;;;;5032709;28;20041;-74
2023/07/07 10:21:53;;;;;;;2.65;1.00;;;27.20;99.90;;;;;;5033016;28;20044;-74
2023/07/07 10:24:20;;;;;;;1.50;0.90;;;27.30;99.90;;;;;;5016585;28;20053;-74
2023/07/07 10:26:47;;;;;;;1.52;1.00;;;27.40;99.90;;;;;;5032975;28;20046;-74
2023/07/07 10:29:37;;;;;;;1.17;0.73;;;27.50;99.90;;;;;;5016352;28;20076;-75
2023/07/07 10:32:03;;;;;;;1.13;0.82;;;27.50;99.90;;;;;;5032688;28;20045;-75
2023/07/07 10:34:43;;;;;;;1.55;1.10;;;27.80;99.90;;;;;;5032310;28;20373;-74
2023/07/07 10:37:21;;;;;;;3.20;1.40;;;27.60;99.90;;;;;;5032196;28;20520;-74
2023/07/07 10:39:55;;;;;;;2.17;1.20;;;26.90;99.90;;;;;;5032310;28;20049;-75
2023/07/07 10:42:23;;;;;;;2.65;1.40;;;26.80;99.90;;;;;;5032157;28;20049;-75
2023/07/07 10:44:54;;;;;;;3.15;1.17;;;26.70;99.90;;;;;;5015702;28;20158;-75
2023/07/07 10:47:24;;;;;;;2.72;1.10;;;27.00;99.90;;;;;;5032414;28;20041;-74
2023/07/07 10:49:50;;;;;;;1.27;1.00;;;27.40;99.90;;;;;;5015315;28;20057;-75
2023/07/07 10:52:22;;;;;;;1.13;0.80;;;27.60;99.90;;;;;;5032224;28;20041;-75
2023/07/07 10:55:07;;;;;;;1.17;0.88;;;27.90;99.90;;;;;;5032067;28;20045;-75
2023/07/07 10:57:53;;;;;;;1.08;0.85;;;27.80;99.90;;;;;;5020005;28;20045;-75
2023/07/07 11:00:37;;;;;;;1.38;0.90;;;28.10;99.90;;;;;;5015578;28;20034;-75
2023/07/07 11:03:16;;;;;;;1.30;0.80;;;28.20;99.90;;;;;;5031809;28;20049;-75
2023/07/07 11:05:50;;;;;;;1.15;0.90;;;28.20;99.90;;;;;;5031329;28;20044;-75
2023/07/07 11:08:39;;;;;;;0.95;0.85;;;28.40;99.90;;;;;;5015159;28;20053;-75
2023/07/07 11:11:10;;;;;;;1.15;0.80;;;28.40;99.90;;;;;;5019373;28;20076;-75
2023/07/07 11:14:01;;;;;;;0.60;0.60;;;28.70;99.90;;;;;;5031569;28;20089;-75
2023/07/07 11:16:47;;;;;;;0.98;0.65;;;28.80;99.90;;;;;;5014983;28;20121;-75
2023/07/07 11:19:16;;;;;;;1.05;0.77;;;29.00;99.90;;;;;;5031234;28;20121;-74
2023/07/07 11:22:30;;;;;;;1.17;0.82;;;29.00;99.90;;;;;;5030458;28;20046;-75
2023/07/07 11:25:04;;;;;;;1.30;0.80;;;29.10;99.90;;;;;;4969109;28;20559;-75
2023/07/07 11:27:54;;;;;;;0.88;0.82;;;28.90;99.90;;;;;;5031221;28;20492;-74
2023/07/07 11:30:36;;;;;;;1.25;0.80;;;28.90;99.90;;;;;;5031333;28;20053;-74
2023/07/07 11:33:07;;;;;;;1.50;1.02;;;28.70;99.90;;;;;;5001116;28;20060;-75
2023/07/07 11:35:42;;;;;;;1.10;0.82;;;28.70;99.90;;;;;;5031211;28;20076;-75
2023/07/07 11:38:31;;;;;;;1.10;0.80;;;28.90;99.90;;;;;;5000898;28;20128;-75
2023/07/07 11:40:58;;;;;;;1.30;0.80;;;29.10;99.90;;;;;;5014548;28;20499;-75
2023/07/07 11:43:48;;;;;;;0.98;0.77;;;29.20;99.90;;;;;;5031202;28;20045;-75
2023/07/07 11:46:20;;;;;;;1.10;0.70;;;28.90;99.90;;;;;;5014289;28;20045;-74
2023/07/07 11:49:03;;;;;;;1.17;0.90;;;28.50;99.90;;;;;;5031063;28;20429;-74
2023/07/07 11:51:47;;;;;;;1.02;0.70;;;28.10;99.90;;;;;;5030566;28;20046;-75
2023/07/07 11:54:28;;;;;;;1.38;1.00;;;28.20;99.90;;;;;;5030501;28;20037;-75
2023/07/07 11:57:12;;;;;;;0.70;0.70;;;28.50;99.90;;;;;;5030482;28;20048;-74
2023/07/07 11:59:59;;;;;;;1.35;0.80;;;28.20;99.90;;;;;;5030867;28;20045;-74
2023/07/07 12:02:47;;;;;;;1.80;1.00;;;28.50;99.90;;;;;;5016957;28;20496;-75
2023/07/07 12:05:22;;;;;;;1.58;1.30;;;28.60;99.90;;;;;;5029409;28;20045;-75
2023/07/07 12:07:54;;;;;;;1.73;1.00;;;28.70;99.90;;;;;;5003004;28;20586;-75
2023/07/07 12:10:25;;;;;;;1.00;0.90;;;28.80;99.90;;;;;;5014577;28;20041;-75
2023/07/07 12:13:10;;;;;;;1.05;0.82;;;28.80;99.90;;;;;;5030877;28;20041;-75
2023/07/07 12:15:50;;;;;;;1.23;0.90;;;28.60;99.90;;;;;;5030469;28;20049;-74
2023/07/07 12:18:35;;;;;;;1.60;0.90;;;28.60;99.90;;;;;;5030425;28;20056;-75
2023/07/07 12:21:22;;;;;;;1.00;0.90;;;28.50;99.90;;;;;;5030025;28;20037;-75
2023/07/07 12:24:26;;;;;;;1.83;0.93;;;28.10;99.90;;;;;;5030460;28;20108;-75
2023/07/07 12:27:11;;;;;;;1.10;0.80;;;27.80;99.90;;;;;;5021520;28;20075;-74
2023/07/07 12:29:40;;;;;;;1.17;0.80;;;28.00;99.90;;;;;;5014115;28;20053;-75
2023/07/07 12:32:07;;;;;;;1.00;0.88;;;28.30;99.90;;;;;;5029954;28;20465;-75
2023/07/07 12:34:39;;;;;;;0.82;0.70;;;28.60;99.90;;;;;;5029648;28;20045;-75
2023/07/07 12:37:15;;;;;;;2.03;0.90;;;28.90;99.90;;;;;;5029800;28;20053;-75
2023/07/07 12:39:54;;;;;;;2.85;1.00;;;29.10;99.90;;;;;;5029518;28;20041;-75
2023/07/07 12:42:22;;;;;;;1.10;0.93;;;28.90;99.90;;;;;;5031290;28;20087;-75
2023/07/07 12:44:49;;;;;;;1.77;0.95;;;28.80;99.90;;;;;;5029311;28;20488;-75
2023/07/07 12:47:30;;;;;;;3.25;1.10;;;28.90;99.90;;;;;;5029716;28;20095;-75
2023/07/07 12:50:02;;;;;;;1.10;0.98;;;29.00;99.90;;;;;;5029530;28;20049;-74
2023/07/07 12:52:40;;;;;;;1.30;0.80;;;29.10;99.90;;;;;;5013089;28;20053;-75
2023/07/07 12:55:21;;;;;;;1.92;1.10;;;29.10;99.90;;;;;;5029741;28;20063;-74
2023/07/07 12:58:13;;;;;;;1.75;0.98;;;29.20;99.90;;;;;;5013066;28;20096;-75
2023/07/07 13:00:40;;;;;;;1.20;1.00;;;29.20;99.90;;;;;;4999838;28;20065;-74
2023/07/07 13:03:09;;;;;;;1.70;0.95;;;29.40;99.90;;;;;;5013244;28;20435;-74
2023/07/07 13:05:49;;;;;;;1.15;0.90;;;29.50;99.90;;;;;;5012616;28;20444;-74
2023/07/07 13:08:37;;;;;;;1.33;1.02;;;29.60;99.90;;;;;;5029609;28;20840;-75
2023/07/07 13:11:06;;;;;;;1.55;1.20;;;29.50;99.90;;;;;;5000199;28;20046;-75
2023/07/07 13:13:38;;;;;;;1.85;1.25;;;29.30;99.90;;;;;;5029644;28;20033;-75
2023/07/07 13:16:09;;;;;;;1.70;1.30;;;29.30;99.90;;;;;;5015588;28;20045;-75